createdAt,value
2019-06-11T00:00:22.263Z,1003.66
2019-06-11T00:01:22.921Z,1003.66
2019-06-11T00:02:29.929Z,1003.70
2019-06-11T00:03:22.166Z,1003.72
2019-06-11T00:04:22.870Z,1003.74
2019-06-11T00:05:23.423Z,1003.73
2019-06-11T00:06:22.835Z,1003.77
2019-06-11T00:07:22.065Z,1003.75
2019-06-11T00:08:22.568Z,1003.81
2019-06-11T00:09:22.099Z,1003.84
2019-06-11T00:10:23.198Z,1003.83
2019-06-11T00:11:23.158Z,1003.85
2019-06-11T00:12:21.235Z,1003.85
2019-06-11T00:13:22.450Z,1003.86
2019-06-11T00:14:23.086Z,1003.86
2019-06-11T00:15:22.583Z,1003.80
2019-06-11T00:16:23.129Z,1003.81
2019-06-11T00:17:22.350Z,1003.80
2019-06-11T00:18:22.830Z,1003.83
2019-06-11T00:19:23.006Z,1003.84
2019-06-11T00:20:22.850Z,1003.83
2019-06-11T00:21:22.542Z,1003.81
2019-06-11T00:22:22.771Z,1003.80
2019-06-11T00:23:22.199Z,1003.78
2019-06-11T00:24:22.590Z,1003.75
2019-06-11T00:25:23.389Z,1003.81
2019-06-11T00:26:22.563Z,1003.80
2019-06-11T00:27:22.528Z,1003.79
2019-06-11T00:28:22.205Z,1003.78
2019-06-11T00:29:22.849Z,1003.77
2019-06-11T00:30:23.171Z,1003.76
2019-06-11T00:31:22.911Z,1003.78
2019-06-11T00:32:30.195Z,1003.76
2019-06-11T00:33:22.503Z,1003.81
2019-06-11T00:34:22.899Z,1003.81
2019-06-11T00:35:23.096Z,1003.84
2019-06-11T00:36:22.735Z,1003.84
2019-06-11T00:37:21.971Z,1003.86
2019-06-11T00:38:22.999Z,1003.86
2019-06-11T00:39:22.467Z,1003.85
2019-06-11T00:40:22.969Z,1003.90
2019-06-11T00:41:22.736Z,1003.90
2019-06-11T00:42:22.083Z,1003.91
2019-06-11T00:43:23.055Z,1003.93
2019-06-11T00:44:23.080Z,1003.93
2019-06-11T00:45:23.149Z,1003.89
2019-06-11T00:46:23.190Z,1003.92
2019-06-11T00:47:22.634Z,1003.94
2019-06-11T00:48:22.855Z,1003.93
2019-06-11T00:49:23.074Z,1003.88
2019-06-11T00:50:22.873Z,1003.89
2019-06-11T00:51:20.695Z,1003.85
2019-06-11T00:52:22.582Z,1003.85
2019-06-11T00:53:20.665Z,1003.87
2019-06-11T00:54:22.978Z,1003.80
2019-06-11T00:55:23.100Z,1003.78
2019-06-11T00:56:23.152Z,1003.75
2019-06-11T00:57:22.614Z,1003.75
2019-06-11T00:58:22.523Z,1003.71
2019-06-11T00:59:23.050Z,1003.74
2019-06-11T01:00:24.310Z,1003.69
2019-06-11T01:01:22.498Z,1003.66
2019-06-11T01:02:23.110Z,1003.67
2019-06-11T01:03:22.741Z,1003.66
2019-06-11T01:04:23.036Z,1003.64
2019-06-11T01:05:22.561Z,1003.64
2019-06-11T01:06:22.955Z,1003.69
2019-06-11T01:07:22.646Z,1003.71
2019-06-11T01:08:22.579Z,1003.74
2019-06-11T01:09:23.383Z,1003.75
2019-06-11T01:10:22.666Z,1003.69
2019-06-11T01:11:22.607Z,1003.71
2019-06-11T01:12:23.166Z,1003.62
2019-06-11T01:13:22.661Z,1003.64
2019-06-11T01:14:20.369Z,1003.59
2019-06-11T01:15:23.131Z,1003.57
2019-06-11T01:16:22.739Z,1003.57
2019-06-11T01:17:20.324Z,1003.56
2019-06-11T01:18:20.313Z,1003.56
2019-06-11T01:19:20.296Z,1003.54
2019-06-11T01:20:23.313Z,1003.52
2019-06-11T01:21:20.272Z,1003.52
2019-06-11T01:22:22.673Z,1003.46
2019-06-11T01:23:22.340Z,1003.45
2019-06-11T01:24:20.225Z,1003.44
2019-06-11T01:25:20.211Z,1003.50
2019-06-11T01:26:20.198Z,1003.52
2019-06-11T01:27:22.195Z,1003.51
2019-06-11T01:28:20.169Z,1003.48
2019-06-11T01:29:20.153Z,1003.50
2019-06-11T01:30:20.150Z,1003.45
2019-06-11T01:31:22.562Z,1003.45
2019-06-11T01:32:22.172Z,1003.36
2019-06-11T01:33:21.500Z,1003.36
2019-06-11T01:34:22.325Z,1003.30
2019-06-11T01:35:20.072Z,1003.30
2019-06-11T01:36:20.055Z,1003.26
2019-06-11T01:37:22.663Z,1003.23
2019-06-11T01:38:20.034Z,1003.25
2019-06-11T01:39:22.059Z,1003.28
2019-06-11T01:40:20.000Z,1003.24
2019-06-11T01:41:22.319Z,1003.27
2019-06-11T01:42:22.022Z,1003.26
2019-06-11T01:43:19.960Z,1003.24
2019-06-11T01:44:19.944Z,1003.18
2019-06-11T01:45:22.668Z,1003.17
2019-06-11T01:46:22.212Z,1003.17
2019-06-11T01:47:21.936Z,1003.21
2019-06-11T01:48:19.880Z,1003.16
2019-06-11T01:49:22.171Z,1003.18
2019-06-11T01:50:19.861Z,1003.17
2019-06-11T01:51:19.841Z,1003.15
2019-06-11T01:52:21.935Z,1003.14
2019-06-11T01:53:19.809Z,1003.16
2019-06-11T01:54:22.296Z,1003.16
2019-06-11T01:55:19.779Z,1003.16
2019-06-11T01:56:19.777Z,1003.16
2019-06-11T01:57:19.750Z,1003.16
2019-06-11T01:58:19.738Z,1003.16
2019-06-11T01:59:19.727Z,1003.17
2019-06-11T02:00:26.344Z,1003.18
2019-06-11T02:01:23.237Z,1003.14
2019-06-11T02:02:19.680Z,1003.14
2019-06-11T02:03:36.167Z,1003.14
2019-06-11T02:04:19.655Z,1003.15
2019-06-11T02:05:22.161Z,1003.15
2019-06-11T02:06:19.624Z,1003.13
2019-06-11T02:07:19.617Z,1003.12
2019-06-11T02:08:19.597Z,1003.10
2019-06-11T02:09:19.581Z,1003.10
2019-06-11T02:10:19.567Z,1003.10
2019-06-11T02:11:19.555Z,1003.12
2019-06-11T02:12:19.536Z,1003.12
2019-06-11T02:13:19.522Z,1003.13
2019-06-11T02:14:19.511Z,1003.15
2019-06-11T02:15:19.500Z,1003.13
2019-06-11T02:16:20.337Z,1003.12
2019-06-11T02:17:19.467Z,1003.15
2019-06-11T02:18:19.453Z,1003.15
2019-06-11T02:19:19.441Z,1003.12
2019-06-11T02:20:19.424Z,1003.16
2019-06-11T02:21:19.408Z,1003.17
2019-06-11T02:22:19.397Z,1003.15
2019-06-11T02:23:19.383Z,1003.14
2019-06-11T02:24:19.363Z,1003.15
2019-06-11T02:25:19.354Z,1003.15
2019-06-11T02:26:19.338Z,1003.15
2019-06-11T02:27:19.340Z,1003.18
2019-06-11T02:28:19.306Z,1003.21
2019-06-11T02:29:19.297Z,1003.18
2019-06-11T02:30:39.278Z,1003.17
2019-06-11T02:31:26.013Z,1003.17
2019-06-11T02:32:24.051Z,1003.17
2019-06-11T02:33:43.835Z,1003.17
2019-06-11T02:34:49.490Z,1003.15
2019-06-11T02:35:38.912Z,1003.14
2019-06-11T02:36:30.085Z,1003.16
2019-06-11T02:37:24.578Z,1003.13
2019-06-11T02:38:27.523Z,1003.17
2019-06-11T02:39:24.983Z,1003.24
2019-06-11T02:40:24.172Z,1003.18
2019-06-11T02:41:24.137Z,1003.23
2019-06-11T02:42:25.855Z,1003.25
2019-06-11T02:43:27.211Z,1003.29
2019-06-11T02:44:25.168Z,1003.28
2019-06-11T02:45:25.109Z,1003.28
2019-06-11T02:46:25.443Z,1003.31
2019-06-11T02:47:27.669Z,1003.31
2019-06-11T02:48:24.667Z,1003.30
2019-06-11T02:49:26.816Z,1003.32
2019-06-11T02:50:28.054Z,1003.33
2019-06-11T02:51:26.939Z,1003.35
2019-06-11T02:52:27.231Z,1003.35
2019-06-11T02:53:26.569Z,1003.41
2019-06-11T02:54:25.213Z,1003.44
2019-06-11T02:55:27.689Z,1003.46
2019-06-11T02:56:27.774Z,1003.49
2019-06-11T02:57:24.308Z,1003.53
2019-06-11T02:58:26.289Z,1003.53
2019-06-11T02:59:28.225Z,1003.51
2019-06-11T03:00:34.878Z,1003.55
2019-06-11T03:01:29.462Z,1003.55
2019-06-11T03:02:26.184Z,1003.54
2019-06-11T03:03:27.632Z,1003.55
2019-06-11T03:04:45.526Z,1003.54
2019-06-11T03:05:33.161Z,1003.54
2019-06-11T03:06:25.543Z,1003.56
2019-06-11T03:07:25.698Z,1003.59
2019-06-11T03:08:25.956Z,1003.64
2019-06-11T03:09:28.697Z,1003.66
2019-06-11T03:10:26.851Z,1003.66
2019-06-11T03:11:28.392Z,1003.67
2019-06-11T03:12:22.609Z,1003.65
2019-06-11T03:13:26.754Z,1003.69
2019-06-11T03:14:24.225Z,1003.70
2019-06-11T03:15:28.162Z,1003.72
2019-06-11T03:16:29.518Z,1003.74
2019-06-11T03:17:26.283Z,1003.72
2019-06-11T03:18:27.244Z,1003.72
2019-06-11T03:19:24.596Z,1003.77
2019-06-11T03:20:23.062Z,1003.74
2019-06-11T03:21:23.141Z,1003.78
2019-06-11T03:22:24.269Z,1003.81
2019-06-11T03:23:21.711Z,1003.81
2019-06-11T03:24:25.040Z,1003.86
2019-06-11T03:25:24.694Z,1003.85
2019-06-11T03:26:26.575Z,1003.83
2019-06-11T03:27:24.177Z,1003.85
2019-06-11T03:28:20.082Z,1003.79
2019-06-11T03:29:24.267Z,1003.78
2019-06-11T03:30:41.882Z,1003.79
2019-06-11T03:31:52.345Z,1003.78
2019-06-11T03:33:18.473Z,1003.83
2019-06-11T03:33:47.978Z,1003.83
2019-06-11T03:35:33.777Z,1003.85
2019-06-11T03:37:44.590Z,1003.92
2019-06-11T03:38:38.095Z,1003.94
2019-06-11T03:39:34.418Z,1003.89
2019-06-11T03:40:22.222Z,1003.90
2019-06-11T03:41:25.592Z,1003.92
2019-06-11T03:42:22.363Z,1003.90
2019-06-11T03:43:22.013Z,1003.92
2019-06-11T03:44:22.146Z,1003.91
2019-06-11T03:45:20.208Z,1003.96
2019-06-11T03:46:28.594Z,1003.93
2019-06-11T03:47:22.713Z,1003.94
2019-06-11T03:48:20.848Z,1003.95
2019-06-11T03:49:24.354Z,1004.00
2019-06-11T03:50:21.711Z,1003.93
2019-06-11T03:51:23.305Z,1003.97
2019-06-11T03:52:21.747Z,1003.93
2019-06-11T03:53:20.254Z,1003.95
2019-06-11T03:54:20.713Z,1004.00
2019-06-11T03:55:20.391Z,1004.02
2019-06-11T03:56:22.506Z,1004.05
2019-06-11T03:57:20.120Z,1004.11
2019-06-11T03:58:24.282Z,1004.11
2019-06-11T03:59:21.882Z,1004.12
2019-06-11T04:00:33.627Z,1004.17
2019-06-11T04:01:21.452Z,1004.20
2019-06-11T04:02:21.136Z,1004.23
2019-06-11T04:03:20.407Z,1004.25
2019-06-11T04:04:20.728Z,1004.20
2019-06-11T04:05:20.441Z,1004.23
2019-06-11T04:06:43.724Z,1004.26
2019-06-11T04:07:33.754Z,1004.25
2019-06-11T04:08:19.634Z,1004.26
2019-06-11T04:09:20.318Z,1004.28
2019-06-11T04:10:19.485Z,1004.33
2019-06-11T04:11:19.366Z,1004.30
2019-06-11T04:12:20.356Z,1004.35
2019-06-11T04:13:20.535Z,1004.35
2019-06-11T04:14:19.509Z,1004.32
2019-06-11T04:15:20.459Z,1004.37
2019-06-11T04:16:54.579Z,1004.36
2019-06-11T04:17:36.788Z,1004.38
2019-06-11T04:18:19.500Z,1004.39
2019-06-11T04:19:23.530Z,1004.40
2019-06-11T04:20:20.880Z,1004.40
2019-06-11T04:21:23.676Z,1004.48
2019-06-11T04:22:20.630Z,1004.48
2019-06-11T04:23:23.852Z,1004.50
2019-06-11T04:24:19.704Z,1004.51
2019-06-11T04:25:21.356Z,1004.51
2019-06-11T04:26:20.049Z,1004.48
2019-06-11T04:27:21.039Z,1004.54
2019-06-11T04:28:20.554Z,1004.53
2019-06-11T04:29:19.478Z,1004.52
2019-06-11T04:30:29.514Z,1004.53
2019-06-11T04:31:19.254Z,1004.53
2019-06-11T04:32:20.249Z,1004.57
2019-06-11T04:33:18.276Z,1004.55
2019-06-11T04:34:19.513Z,1004.56
2019-06-11T04:35:21.135Z,1004.56
2019-06-11T04:36:18.431Z,1004.57
2019-06-11T04:37:37.436Z,1004.54
2019-06-11T04:38:24.118Z,1004.59
2019-06-11T04:39:17.883Z,1004.58
2019-06-11T04:40:17.978Z,1004.61
2019-06-11T04:41:19.462Z,1004.59
2019-06-11T04:42:17.983Z,1004.58
2019-06-11T04:43:18.178Z,1004.65
2019-06-11T04:44:18.646Z,1004.65
2019-06-11T04:45:19.494Z,1004.60
2019-06-11T04:46:19.928Z,1004.58
2019-06-11T04:47:18.681Z,1004.57
2019-06-11T04:48:19.385Z,1004.63
2019-06-11T04:49:20.009Z,1004.61
2019-06-11T04:50:20.183Z,1004.62
2019-06-11T04:51:19.970Z,1004.63
2019-06-11T04:52:18.505Z,1004.68
2019-06-11T04:53:18.444Z,1004.68
2019-06-11T04:54:19.558Z,1004.65
2019-06-11T04:55:19.891Z,1004.67
2019-06-11T04:56:19.308Z,1004.67
2019-06-11T04:57:18.579Z,1004.67
2019-06-11T04:58:19.232Z,1004.68
2019-06-11T04:59:20.024Z,1004.67
2019-06-11T05:00:26.845Z,1004.72
2019-06-11T05:05:18.428Z,1004.79
2019-06-11T05:06:19.322Z,1004.78
2019-06-11T05:07:33.898Z,1004.76
2019-06-11T05:08:20.647Z,1004.77
2019-06-11T05:09:18.685Z,1004.78
2019-06-11T05:10:17.454Z,1004.74
2019-06-11T05:11:19.053Z,1004.75
2019-06-11T05:12:17.984Z,1004.76
2019-06-11T05:13:17.041Z,1004.79
2019-06-11T05:14:25.146Z,1004.82
2019-06-11T05:15:16.856Z,1004.79
2019-06-11T05:16:17.749Z,1004.76
2019-06-11T05:17:17.262Z,1004.78
2019-06-11T05:18:17.395Z,1004.77
2019-06-11T05:19:17.686Z,1004.76
2019-06-11T05:20:17.176Z,1004.76
2019-06-11T05:21:17.338Z,1004.77
2019-06-11T05:22:17.548Z,1004.81
2019-06-11T05:23:17.104Z,1004.76
2019-06-11T05:24:17.289Z,1004.80
2019-06-11T05:25:17.167Z,1004.74
2019-06-11T05:26:17.510Z,1004.72
2019-06-11T05:27:17.187Z,1004.71
2019-06-11T05:28:17.365Z,1004.71
2019-06-11T05:29:17.427Z,1004.68
2019-06-11T05:30:19.927Z,1004.61
2019-06-11T05:31:17.795Z,1004.65
2019-06-11T05:32:17.807Z,1004.65
2019-06-11T05:33:17.844Z,1004.66
2019-06-11T05:34:17.976Z,1004.64
2019-06-11T05:35:18.573Z,1004.62
2019-06-11T05:36:17.989Z,1004.60
2019-06-11T05:37:18.101Z,1004.61
2019-06-11T05:38:24.423Z,1004.61
2019-06-11T05:39:16.495Z,1004.59
2019-06-11T05:40:16.493Z,1004.60
2019-06-11T05:41:16.471Z,1004.60
2019-06-11T05:42:16.460Z,1004.58
2019-06-11T05:43:16.433Z,1004.55
2019-06-11T05:44:16.421Z,1004.54
2019-06-11T05:45:16.416Z,1004.51
2019-06-11T05:46:16.409Z,1004.53
2019-06-11T05:47:16.379Z,1004.57
2019-06-11T05:48:16.370Z,1004.55
2019-06-11T05:49:16.349Z,1004.52
2019-06-11T05:50:16.329Z,1004.53
2019-06-11T05:51:16.320Z,1004.55
2019-06-11T05:52:16.297Z,1004.54
2019-06-11T05:53:16.289Z,1004.54
2019-06-11T05:54:16.275Z,1004.50
2019-06-11T05:55:16.259Z,1004.53
2019-06-11T05:56:16.239Z,1004.56
2019-06-11T05:57:16.226Z,1004.56
2019-06-11T05:58:16.206Z,1004.54
2019-06-11T05:59:16.193Z,1004.57
2019-06-11T06:00:16.178Z,1004.53
2019-06-11T06:01:29.720Z,1004.60
2019-06-11T06:02:16.149Z,1004.57
2019-06-11T06:03:16.140Z,1004.58
2019-06-11T06:04:16.121Z,1004.59
2019-06-11T06:05:16.102Z,1004.56
2019-06-11T06:06:16.102Z,1004.58
2019-06-11T06:07:16.079Z,1004.56
2019-06-11T06:08:19.454Z,1004.57
2019-06-11T06:09:16.044Z,1004.55
2019-06-11T06:10:16.033Z,1004.56
2019-06-11T06:11:16.013Z,1004.57
2019-06-11T06:12:16.002Z,1004.55
2019-06-11T06:13:15.985Z,1004.60
2019-06-11T06:14:15.971Z,1004.55
2019-06-11T06:15:15.956Z,1004.58
2019-06-11T06:16:15.938Z,1004.59
2019-06-11T06:17:15.930Z,1004.54
2019-06-11T06:18:15.912Z,1004.50
2019-06-11T06:19:15.897Z,1004.47
2019-06-11T06:20:15.879Z,1004.42
2019-06-11T06:21:15.867Z,1004.38
2019-06-11T06:22:15.856Z,1004.37
2019-06-11T06:23:15.871Z,1004.42
2019-06-11T06:24:24.040Z,1004.45
2019-06-11T06:25:15.817Z,1004.45
2019-06-11T06:26:15.803Z,1004.45
2019-06-11T06:27:15.803Z,1004.49
2019-06-11T06:28:15.772Z,1004.38
2019-06-11T06:29:15.756Z,1004.36
2019-06-11T06:30:15.735Z,1004.38
2019-06-11T06:31:15.725Z,1004.38
2019-06-11T06:32:15.709Z,1004.38
2019-06-11T06:33:15.701Z,1004.39
2019-06-11T06:34:15.681Z,1004.44
2019-06-11T06:35:15.666Z,1004.40
2019-06-11T06:36:15.649Z,1004.42
2019-06-11T06:37:15.639Z,1004.40
2019-06-11T06:38:30.426Z,1004.48
2019-06-11T06:39:15.609Z,1004.42
2019-06-11T06:40:15.598Z,1004.50
2019-06-11T06:41:15.580Z,1004.51
2019-06-11T06:42:15.573Z,1004.54
2019-06-11T06:43:15.560Z,1004.52
2019-06-11T06:44:15.542Z,1004.55
2019-06-11T06:45:15.526Z,1004.54
2019-06-11T06:46:15.521Z,1004.57
2019-06-11T06:47:15.497Z,1004.52
2019-06-11T06:48:15.485Z,1004.57
2019-06-11T06:49:15.468Z,1004.59
2019-06-11T06:50:15.451Z,1004.62
2019-06-11T06:51:15.447Z,1004.62
2019-06-11T06:52:15.428Z,1004.57
2019-06-11T06:53:15.416Z,1004.56
2019-06-11T06:54:15.408Z,1004.55
2019-06-11T06:55:15.388Z,1004.56
2019-06-11T06:56:15.374Z,1004.59
2019-06-11T06:57:15.357Z,1004.57
2019-06-11T06:58:15.345Z,1004.55
2019-06-11T06:59:15.343Z,1004.55
2019-06-11T07:00:15.316Z,1004.60
2019-06-11T07:01:15.303Z,1004.58
2019-06-11T07:02:15.295Z,1004.60
2019-06-11T07:03:15.286Z,1004.61
2019-06-11T07:04:15.266Z,1004.60
2019-06-11T07:05:15.251Z,1004.59
2019-06-11T07:06:15.236Z,1004.52
2019-06-11T07:07:15.219Z,1004.55
2019-06-11T07:08:15.204Z,1004.65
2019-06-11T07:09:15.201Z,1004.64
2019-06-11T07:10:15.179Z,1004.69
2019-06-11T07:11:15.171Z,1004.68
2019-06-11T07:12:15.149Z,1004.61
2019-06-11T07:13:18.152Z,1004.58
2019-06-11T07:14:15.121Z,1004.56
2019-06-11T07:15:15.120Z,1004.49
2019-06-11T07:16:15.092Z,1004.47
2019-06-11T07:17:15.079Z,1004.46
2019-06-11T07:18:15.065Z,1004.50
2019-06-11T07:19:15.063Z,1004.44
2019-06-11T07:20:15.038Z,1004.43
2019-06-11T07:21:15.023Z,1004.49
2019-06-11T07:22:15.010Z,1004.47
2019-06-11T07:23:14.995Z,1004.57
2019-06-11T07:24:14.985Z,1004.58
2019-06-11T07:25:14.966Z,1004.60
2019-06-11T07:26:14.953Z,1004.57
2019-06-11T07:27:14.946Z,1004.58
2019-06-11T07:28:14.924Z,1004.61
2019-06-11T07:29:14.914Z,1004.62
2019-06-11T07:30:14.915Z,1004.64
2019-06-11T07:31:14.883Z,1004.64
2019-06-11T07:32:14.876Z,1004.68
2019-06-11T07:33:14.856Z,1004.72
2019-06-11T07:34:14.844Z,1004.68
2019-06-11T07:35:14.826Z,1004.69
2019-06-11T07:36:14.813Z,1004.75
2019-06-11T07:37:14.798Z,1004.78
2019-06-11T07:38:14.785Z,1004.83
2019-06-11T07:39:22.659Z,1004.84
2019-06-11T07:40:14.757Z,1004.90
2019-06-11T07:41:14.756Z,1004.90
2019-06-11T07:42:14.730Z,1004.89
2019-06-11T07:43:14.735Z,1004.85
2019-06-11T07:44:14.703Z,1004.86
2019-06-11T07:45:14.688Z,1004.87
2019-06-11T07:46:32.894Z,1004.85
2019-06-11T07:47:14.665Z,1004.87
2019-06-11T07:48:14.648Z,1004.87
2019-06-11T07:49:14.641Z,1004.91
2019-06-11T07:50:14.621Z,1004.88
2019-06-11T07:51:14.607Z,1004.88
2019-06-11T07:52:14.593Z,1004.89
2019-06-11T07:53:14.579Z,1004.92
2019-06-11T07:54:14.568Z,1004.92
2019-06-11T07:55:14.561Z,1004.95
2019-06-11T07:56:14.537Z,1004.94
2019-06-11T07:57:14.590Z,1005.00
2019-06-11T07:58:14.518Z,1005.02
2019-06-11T07:59:14.496Z,1005.00
2019-06-11T08:00:14.495Z,1004.99
2019-06-11T08:01:14.472Z,1004.98
2019-06-11T08:02:14.458Z,1005.01
2019-06-11T08:03:14.442Z,1005.06
2019-06-11T08:04:14.429Z,1005.05
2019-06-11T08:05:14.424Z,1005.05
2019-06-11T08:06:14.427Z,1005.10
2019-06-11T08:07:14.387Z,1005.04
2019-06-11T08:08:14.372Z,1005.05
2019-06-11T08:09:15.072Z,1005.07
2019-06-11T08:10:27.674Z,1005.04
2019-06-11T08:11:14.333Z,1005.07
2019-06-11T08:12:14.326Z,1005.09
2019-06-11T08:13:14.583Z,1005.07
2019-06-11T08:14:15.784Z,1005.12
2019-06-11T08:15:14.285Z,1005.09
2019-06-11T08:16:17.394Z,1005.12
2019-06-11T08:17:14.530Z,1005.12
2019-06-11T08:18:14.923Z,1005.15
2019-06-11T08:19:16.596Z,1005.09
2019-06-11T08:20:54.667Z,1005.12
2019-06-11T08:21:35.546Z,1005.08
2019-06-11T08:23:14.433Z,1005.09
2019-06-11T08:24:21.473Z,1005.10
2019-06-11T08:25:53.628Z,1005.07
2019-06-11T08:27:11.340Z,1005.11
2019-06-11T08:27:29.818Z,1005.17
2019-06-11T08:28:15.722Z,1005.20
2019-06-11T08:29:14.092Z,1005.18
2019-06-11T08:30:14.075Z,1005.20
2019-06-11T08:31:14.064Z,1005.18
2019-06-11T08:32:14.044Z,1005.15
2019-06-11T08:33:14.037Z,1005.13
2019-06-11T08:34:14.021Z,1005.14
2019-06-11T08:35:14.008Z,1005.18
2019-06-11T08:36:13.990Z,1005.19
2019-06-11T08:37:13.986Z,1005.22
2019-06-11T08:38:13.963Z,1005.27
2019-06-11T08:39:13.958Z,1005.31
2019-06-11T08:40:19.885Z,1005.26
2019-06-11T08:41:13.924Z,1005.25
2019-06-11T08:42:13.916Z,1005.28
2019-06-11T08:43:13.910Z,1005.30
2019-06-11T08:44:13.883Z,1005.29
2019-06-11T08:45:19.983Z,1005.31
2019-06-11T08:46:13.860Z,1005.29
2019-06-11T08:47:13.845Z,1005.30
2019-06-11T08:48:13.828Z,1005.38
2019-06-11T08:49:13.818Z,1005.27
2019-06-11T08:50:13.806Z,1005.28
2019-06-11T08:51:13.794Z,1005.25
2019-06-11T08:52:13.780Z,1005.30
2019-06-11T08:53:14.589Z,1005.36
2019-06-11T08:54:13.760Z,1005.33
2019-06-11T08:55:13.740Z,1005.41
2019-06-11T08:56:13.735Z,1005.41
2019-06-11T08:57:13.721Z,1005.39
2019-06-11T08:58:13.728Z,1005.36
2019-06-11T08:59:13.691Z,1005.37
2019-06-11T09:00:29.510Z,1005.33
2019-06-11T09:01:13.722Z,1005.35
2019-06-11T09:02:13.659Z,1005.38
2019-06-11T09:03:13.636Z,1005.38
2019-06-11T09:04:13.630Z,1005.43
2019-06-11T09:05:13.607Z,1005.47
2019-06-11T09:06:13.961Z,1005.50
2019-06-11T09:07:13.585Z,1005.49
2019-06-11T09:08:13.577Z,1005.50
2019-06-11T09:09:13.555Z,1005.49
2019-06-11T09:10:27.222Z,1005.52
2019-06-11T09:11:13.528Z,1005.52
2019-06-11T09:12:13.516Z,1005.49
2019-06-11T09:13:13.505Z,1005.58
2019-06-11T09:14:13.497Z,1005.55
2019-06-11T09:15:13.478Z,1005.54
2019-06-11T09:16:13.464Z,1005.53
2019-06-11T09:17:13.451Z,1005.51
2019-06-11T09:18:14.273Z,1005.54
2019-06-11T09:19:13.448Z,1005.49
2019-06-11T09:20:13.415Z,1005.51
2019-06-11T09:21:13.400Z,1005.57
2019-06-11T09:22:13.395Z,1005.72
2019-06-11T09:23:13.382Z,1005.48
2019-06-11T09:24:13.363Z,1005.46
2019-06-11T09:25:13.350Z,1005.42
2019-06-11T09:26:13.340Z,1005.41
2019-06-11T09:27:13.327Z,1005.40
2019-06-11T09:28:13.321Z,1005.38
2019-06-11T09:29:13.303Z,1005.44
2019-06-11T09:30:13.909Z,1005.45
2019-06-11T09:31:13.279Z,1005.54
2019-06-11T09:32:13.269Z,1005.55
2019-06-11T09:33:13.255Z,1005.55
2019-06-11T09:34:13.245Z,1005.59
2019-06-11T09:35:13.230Z,1005.76
2019-06-11T09:36:13.224Z,1005.52
2019-06-11T09:37:13.216Z,1005.50
2019-06-11T09:38:13.198Z,1005.57
2019-06-11T09:39:13.187Z,1005.64
2019-06-11T09:40:13.176Z,1005.58
2019-06-11T09:41:13.173Z,1005.74
2019-06-11T09:42:13.155Z,1005.64
2019-06-11T09:43:13.150Z,1005.66
2019-06-11T09:44:13.148Z,1005.45
2019-06-11T09:45:13.131Z,1005.39
2019-06-11T09:46:13.130Z,1005.31
2019-06-11T09:47:13.110Z,1005.32
2019-06-11T09:48:13.098Z,1005.34
2019-06-11T09:49:14.578Z,1005.34
2019-06-11T09:50:13.077Z,1005.36
2019-06-11T09:51:13.071Z,1005.37
2019-06-11T09:52:13.057Z,1005.35
2019-06-11T09:53:13.047Z,1005.38
2019-06-11T09:54:13.038Z,1005.53
2019-06-11T09:55:13.036Z,1005.55
2019-06-11T09:56:13.019Z,1005.54
2019-06-11T09:57:13.012Z,1005.56
2019-06-11T09:58:12.997Z,1005.36
2019-06-11T09:59:12.993Z,1005.26
2019-06-11T10:00:12.987Z,1005.27
2019-06-11T10:01:12.977Z,1005.35
2019-06-11T10:02:12.963Z,1005.33
2019-06-11T10:03:12.954Z,1005.31
2019-06-11T10:04:12.940Z,1005.31
2019-06-11T10:05:12.936Z,1005.30
2019-06-11T10:06:12.924Z,1005.35
2019-06-11T10:07:12.912Z,1005.36
2019-06-11T10:08:12.911Z,1005.41
2019-06-11T10:09:12.905Z,1005.42
2019-06-11T10:10:12.882Z,1005.41
2019-06-11T10:12:12.879Z,1005.45
2019-06-11T10:13:12.859Z,1005.48
2019-06-11T10:14:12.843Z,1005.46
2019-06-11T10:15:12.830Z,1005.43
2019-06-11T10:16:12.821Z,1005.49
2019-06-11T10:17:14.551Z,1005.49
2019-06-11T10:18:12.806Z,1005.50
2019-06-11T10:19:12.785Z,1005.53
2019-06-11T10:20:12.777Z,1005.57
2019-06-11T10:21:12.781Z,1005.57
2019-06-11T10:22:12.760Z,1005.57
2019-06-11T10:23:12.742Z,1005.57
2019-06-11T10:24:12.744Z,1005.59
2019-06-11T10:25:12.715Z,1005.58
2019-06-11T10:26:12.707Z,1005.58
2019-06-11T10:27:12.696Z,1005.58
2019-06-11T10:28:18.486Z,1005.61
2019-06-11T10:29:12.685Z,1005.62
2019-06-11T10:30:12.661Z,1005.74
2019-06-11T10:31:12.648Z,1005.72
2019-06-11T10:32:12.635Z,1005.70
2019-06-11T10:33:12.624Z,1005.66
2019-06-11T10:34:12.620Z,1005.63
2019-06-11T10:35:12.609Z,1005.64
2019-06-11T10:36:12.594Z,1005.70
2019-06-11T10:37:12.579Z,1005.69
2019-06-11T10:38:12.576Z,1005.71
2019-06-11T10:39:12.580Z,1005.75
2019-06-11T10:40:12.546Z,1005.76
2019-06-11T10:41:12.534Z,1005.78
2019-06-11T10:42:12.524Z,1005.80
2019-06-11T10:43:12.515Z,1005.81
2019-06-11T10:44:12.499Z,1005.73
2019-06-11T10:45:12.488Z,1005.71
2019-06-11T10:46:12.490Z,1005.71
2019-06-11T10:47:13.633Z,1005.84
2019-06-11T10:48:12.456Z,1005.73
2019-06-11T10:49:12.443Z,1005.69
2019-06-11T10:50:12.433Z,1005.71
2019-06-11T10:51:12.427Z,1005.68
2019-06-11T10:52:12.413Z,1005.66
2019-06-11T10:53:12.405Z,1005.62
2019-06-11T10:54:12.394Z,1005.64
2019-06-11T10:55:12.384Z,1005.72
2019-06-11T10:56:12.425Z,1005.74
2019-06-11T10:57:12.395Z,1005.69
2019-06-11T10:58:12.383Z,1005.57
2019-06-11T10:59:14.733Z,1005.67
2019-06-11T11:00:14.530Z,1005.67
2019-06-11T11:01:12.318Z,1005.65
2019-06-11T11:02:12.305Z,1005.60
2019-06-11T11:03:12.298Z,1005.63
2019-06-11T11:04:12.286Z,1005.68
2019-06-11T11:05:12.273Z,1005.68
2019-06-11T11:06:12.264Z,1005.62
2019-06-11T11:07:12.254Z,1005.61
2019-06-11T11:08:12.270Z,1005.68
2019-06-11T11:09:12.230Z,1005.59
2019-06-11T11:10:12.245Z,1005.60
2019-06-11T11:11:12.786Z,1005.66
2019-06-11T11:12:24.257Z,1005.59
2019-06-11T11:13:12.190Z,1005.57
2019-06-11T11:14:12.178Z,1005.63
2019-06-11T11:15:12.170Z,1005.65
2019-06-11T11:16:12.772Z,1005.68
2019-06-11T11:17:12.145Z,1005.64
2019-06-11T11:18:12.975Z,1005.66
2019-06-11T11:19:12.125Z,1005.68
2019-06-11T11:20:12.121Z,1005.67
2019-06-11T11:21:12.103Z,1005.67
2019-06-11T11:22:12.098Z,1005.66
2019-06-11T11:23:12.087Z,1005.63
2019-06-11T11:24:12.075Z,1005.67
2019-06-11T11:25:12.063Z,1005.63
2019-06-11T11:26:12.566Z,1005.61
2019-06-11T11:27:12.049Z,1005.65
2019-06-11T11:28:21.796Z,1005.64
2019-06-11T11:29:12.019Z,1005.70
2019-06-11T11:30:12.015Z,1005.67
2019-06-11T11:31:12.002Z,1005.73
2019-06-11T11:32:11.991Z,1005.71
2019-06-11T11:33:12.191Z,1005.72
2019-06-11T11:34:11.970Z,1005.69
2019-06-11T11:35:11.965Z,1005.69
2019-06-11T11:36:12.166Z,1005.74
2019-06-11T11:37:15.003Z,1005.70
2019-06-11T11:38:11.929Z,1005.68
2019-06-11T11:39:11.920Z,1005.68
2019-06-11T11:40:11.908Z,1005.67
2019-06-11T11:41:11.898Z,1005.64
2019-06-11T11:42:20.848Z,1005.62
2019-06-11T11:43:11.881Z,1005.57
2019-06-11T11:44:11.867Z,1005.55
2019-06-11T11:45:11.856Z,1005.56
2019-06-11T11:46:11.851Z,1005.56
2019-06-11T11:47:11.837Z,1005.63
2019-06-11T11:48:11.830Z,1005.63
2019-06-11T11:49:11.817Z,1005.63
2019-06-11T11:50:11.812Z,1005.63
2019-06-11T11:51:11.812Z,1005.66
2019-06-11T11:52:11.791Z,1005.64
2019-06-11T11:53:11.779Z,1005.65
2019-06-11T11:54:11.775Z,1005.63
2019-06-11T11:55:11.762Z,1005.59
2019-06-11T11:56:12.651Z,1005.68
2019-06-11T11:57:11.742Z,1005.71
2019-06-11T11:58:11.760Z,1005.70
2019-06-11T11:59:11.724Z,1005.76
2019-06-11T12:00:17.947Z,1005.77
2019-06-11T12:01:11.703Z,1005.77
2019-06-11T12:02:11.707Z,1005.76
2019-06-11T12:03:11.683Z,1005.81
2019-06-11T12:04:12.671Z,1005.83
2019-06-11T12:05:11.671Z,1005.84
2019-06-11T12:06:12.331Z,1005.89
2019-06-11T12:07:11.667Z,1005.88
2019-06-11T12:08:11.632Z,1005.90
2019-06-11T12:09:11.622Z,1005.93
2019-06-11T12:10:11.616Z,1005.92
2019-06-11T12:11:16.075Z,1005.94
2019-06-11T12:12:11.613Z,1005.94
2019-06-11T12:13:11.813Z,1005.96